createdAt,value
2022-09-30T00:01:35.961Z,100094.47
2022-09-30T00:04:03.039Z,100096.34
2022-09-30T00:06:31.214Z,100098.13
2022-09-30T00:08:58.247Z,100095.59
2022-09-30T00:11:31.269Z,100098.34
2022-09-30T00:13:58.809Z,100100.78
2022-09-30T00:16:28.503Z,100102.66
2022-09-30T00:18:56.597Z,100095.66
2022-09-30T00:21:24.208Z,100097.47
2022-09-30T00:23:51.303Z,100103.53
2022-09-30T00:26:20.483Z,100108.84
2022-09-30T00:28:51.247Z,100106.19
2022-09-30T00:31:20.099Z,100113.97
2022-09-30T00:34:06.621Z,100110.38
2022-09-30T00:36:38.117Z,100116.44
2022-09-30T00:39:06.775Z,100117.25
2022-09-30T00:41:34.154Z,100123.25
2022-09-30T00:44:00.954Z,100125.88
2022-09-30T00:46:44.633Z,100127.38
2022-09-30T00:49:18.070Z,100125.44
2022-09-30T00:51:54.225Z,100123.75
2022-09-30T00:54:28.360Z,100122.09
2022-09-30T00:57:01.882Z,100128.16
2022-09-30T00:59:40.077Z,100124.75
2022-09-30T01:02:06.813Z,100124.00
2022-09-30T01:04:34.894Z,100126.47
2022-09-30T01:07:07.182Z,100122.22
2022-09-30T01:09:35.802Z,100130.78
2022-09-30T01:12:10.698Z,100126.19
2022-09-30T01:14:37.683Z,100130.69
2022-09-30T01:17:35.187Z,100131.31
2022-09-30T01:20:04.785Z,100130.53
2022-09-30T01:22:41.892Z,100125.28
2022-09-30T01:25:18.140Z,100121.00
2022-09-30T01:28:12.233Z,100128.84
2022-09-30T01:31:16.026Z,100134.78
2022-09-30T01:34:13.241Z,100136.41
2022-09-30T01:37:07.890Z,100137.19
2022-09-30T01:39:43.037Z,100128.69
2022-09-30T01:42:24.812Z,100130.44
2022-09-30T01:45:15.503Z,100127.03
2022-09-30T01:48:00.172Z,100130.38
2022-09-30T01:50:50.882Z,100127.72
2022-09-30T01:53:33.187Z,100141.25
2022-09-30T01:56:12.420Z,100142.50
2022-09-30T01:58:46.644Z,100149.31
2022-09-30T02:01:31.653Z,100158.56
2022-09-30T02:04:26.248Z,100156.84
2022-09-30T02:06:58.405Z,100150.19
2022-09-30T02:09:30.328Z,100154.00
2022-09-30T02:12:02.974Z,100150.84
2022-09-30T02:14:39.927Z,100164.09
2022-09-30T02:17:17.422Z,100166.28
2022-09-30T02:19:48.027Z,100175.09
2022-09-30T02:22:26.202Z,100164.78
2022-09-30T02:24:59.411Z,100168.25
2022-09-30T02:27:33.923Z,100162.41
2022-09-30T02:30:04.114Z,100162.59
2022-09-30T02:32:38.774Z,100165.16
2022-09-30T02:35:10.369Z,100163.50
2022-09-30T02:37:42.518Z,100165.22
2022-09-30T02:40:35.791Z,100164.50
2022-09-30T02:43:04.728Z,100169.72
2022-09-30T02:45:38.584Z,100160.25
2022-09-30T02:48:19.377Z,100168.06
2022-09-30T02:50:54.510Z,100156.69
2022-09-30T02:53:42.776Z,100163.56
2022-09-30T02:56:38.816Z,100162.78
2022-09-30T02:59:05.424Z,100174.94
2022-09-30T03:01:32.386Z,100174.41
2022-09-30T03:04:07.939Z,100174.59
2022-09-30T03:06:37.102Z,100175.59
2022-09-30T03:09:04.033Z,100173.88
2022-09-30T03:11:31.689Z,100176.81
2022-09-30T03:14:36.914Z,100179.41
2022-09-30T03:17:30.635Z,100176.94
2022-09-30T03:20:15.947Z,100187.09
2022-09-30T03:23:18.612Z,100182.56
2022-09-30T03:26:27.525Z,100169.44
2022-09-30T03:29:15.114Z,100190.41
2022-09-30T03:32:09.857Z,100201.69
2022-09-30T03:34:55.730Z,100190.31
2022-09-30T03:37:33.667Z,100199.91
2022-09-30T03:40:17.984Z,100190.53
2022-09-30T03:42:51.859Z,100198.28
2022-09-30T03:45:30.755Z,100200.97
2022-09-30T03:48:01.369Z,100197.63
2022-09-30T03:50:29.256Z,100202.88
2022-09-30T03:52:55.827Z,100183.72
2022-09-30T03:55:23.881Z,100201.88
2022-09-30T03:57:51.235Z,100202.81
2022-09-30T04:00:18.921Z,100203.81
2022-09-30T04:02:45.923Z,100204.34
2022-09-30T04:05:12.728Z,100212.59
2022-09-30T04:07:39.352Z,100222.66
2022-09-30T04:10:06.309Z,100217.72
2022-09-30T04:12:32.881Z,100217.44
2022-09-30T04:14:59.534Z,100221.06
2022-09-30T04:17:26.075Z,100222.66
2022-09-30T04:19:52.603Z,100221.97
2022-09-30T04:22:22.078Z,100219.94
2022-09-30T04:24:50.791Z,100233.03
2022-09-30T04:27:17.499Z,100224.91
2022-09-30T04:29:44.268Z,100231.06
2022-09-30T04:32:10.874Z,100226.19
2022-09-30T04:34:37.580Z,100237.91
2022-09-30T04:37:08.575Z,100228.19
2022-09-30T04:39:37.202Z,100236.63
2022-09-30T04:42:03.787Z,100245.78
2022-09-30T04:44:30.482Z,100248.88
2022-09-30T04:46:57.268Z,100247.53
2022-09-30T04:49:24.426Z,100251.56
2022-09-30T04:51:51.087Z,100256.25
2022-09-30T04:54:17.871Z,100258.56
2022-09-30T04:56:44.463Z,100258.56
2022-09-30T04:59:15.866Z,100266.38
2022-09-30T05:01:44.484Z,100264.91
2022-09-30T05:04:12.319Z,100269.84
2022-09-30T05:06:41.859Z,100273.50
2022-09-30T05:09:08.487Z,100274.19
2022-09-30T05:11:38.056Z,100279.56
2022-09-30T05:14:13.498Z,100291.41
2022-09-30T05:16:41.874Z,100282.59
2022-09-30T05:19:08.539Z,100293.25
2022-09-30T05:21:35.637Z,100292.28
2022-09-30T05:24:03.344Z,100294.91
2022-09-30T05:26:30.076Z,100286.25
2022-09-30T05:28:57.717Z,100292.97
2022-09-30T05:31:24.498Z,100294.22
2022-09-30T05:33:55.783Z,100286.00
2022-09-30T05:36:26.818Z,100294.44
2022-09-30T05:38:53.899Z,100289.22
2022-09-30T05:41:20.996Z,100295.53
2022-09-30T05:43:48.268Z,100296.03
2022-09-30T05:46:15.745Z,100302.88
2022-09-30T05:48:42.502Z,100299.34
2022-09-30T05:51:09.489Z,100308.03
2022-09-30T05:53:42.106Z,100309.47
2022-09-30T05:56:10.424Z,100310.28
2022-09-30T05:58:37.805Z,100305.69
2022-09-30T06:01:13.200Z,100314.25
2022-09-30T06:03:41.784Z,100329.44
2022-09-30T06:06:08.735Z,100331.47
2022-09-30T06:08:35.644Z,100330.00
2022-09-30T06:11:07.516Z,100329.47
2022-09-30T06:13:34.058Z,100332.31
2022-09-30T06:16:02.169Z,100336.19
2022-09-30T06:18:29.725Z,100339.22
2022-09-30T06:20:58.083Z,100340.41
2022-09-30T06:23:25.825Z,100335.41
2022-09-30T06:25:54.131Z,100347.81
2022-09-30T06:28:21.397Z,100335.97
2022-09-30T06:30:48.648Z,100341.91
2022-09-30T06:33:15.603Z,100340.16
2022-09-30T06:35:42.781Z,100344.16
2022-09-30T06:38:10.514Z,100349.66
2022-09-30T06:40:38.008Z,100340.28
2022-09-30T06:43:05.114Z,100354.06
2022-09-30T06:45:33.401Z,100359.50
2022-09-30T06:48:01.587Z,100348.75
2022-09-30T06:50:28.956Z,100345.28
2022-09-30T06:53:06.129Z,100353.41
2022-09-30T06:55:36.462Z,100344.81
2022-09-30T06:58:03.032Z,100347.28
2022-09-30T07:00:29.696Z,100354.50
2022-09-30T07:02:56.776Z,100360.41
2022-09-30T07:05:26.424Z,100359.34
2022-09-30T07:07:53.490Z,100363.09
2022-09-30T07:10:20.954Z,100356.09
2022-09-30T07:12:51.773Z,100366.88
2022-09-30T07:15:22.897Z,100370.84
2022-09-30T07:17:53.467Z,100373.09
2022-09-30T07:20:20.328Z,100374.63
2022-09-30T07:22:47.557Z,100370.13
2022-09-30T07:25:14.831Z,100365.28
2022-09-30T07:27:41.968Z,100369.28
2022-09-30T07:30:12.800Z,100379.09
2022-09-30T07:32:43.331Z,100366.41
2022-09-30T07:35:09.936Z,100370.09
2022-09-30T07:37:38.637Z,100374.63
2022-09-30T07:40:07.653Z,100376.81
2022-09-30T07:42:39.239Z,100376.41
2022-09-30T07:45:06.339Z,100380.41
2022-09-30T07:47:32.899Z,100391.69
2022-09-30T07:50:00.365Z,100383.72
2022-09-30T07:52:26.949Z,100388.53
2022-09-30T07:54:53.462Z,100396.59
2022-09-30T07:57:21.584Z,100396.88
2022-09-30T07:59:48.124Z,100394.94
2022-09-30T08:02:17.962Z,100394.13
2022-09-30T08:04:45.089Z,100387.50
2022-09-30T08:07:13.330Z,100408.50
2022-09-30T08:09:39.945Z,100399.22
2022-09-30T08:12:06.537Z,100403.66
2022-09-30T08:14:33.377Z,100396.16
2022-09-30T08:17:00.849Z,100402.44
2022-09-30T08:19:30.210Z,100402.41
2022-09-30T08:21:57.854Z,100395.66
2022-09-30T08:24:25.527Z,100396.53
2022-09-30T08:26:53.245Z,100400.09
2022-09-30T08:29:35.830Z,100397.53
2022-09-30T08:32:06.847Z,100394.94
2022-09-30T08:34:35.491Z,100396.69
2022-09-30T08:37:08.341Z,100388.88
2022-09-30T08:39:37.292Z,100407.78
2022-09-30T08:42:36.532Z,100404.53
2022-09-30T08:45:07.354Z,100401.31
2022-09-30T08:47:46.971Z,100408.97
2022-09-30T08:50:18.972Z,100404.81
2022-09-30T08:52:49.931Z,100398.16
2022-09-30T08:55:31.448Z,100397.41
2022-09-30T08:57:58.510Z,100401.66
2022-09-30T09:00:25.861Z,100397.38
2022-09-30T09:02:56.149Z,100396.63
2022-09-30T09:05:52.730Z,100394.16
2022-09-30T09:08:53.309Z,100392.41
2022-09-30T09:11:48.635Z,100392.47
2022-09-30T09:14:38.844Z,100393.44
2022-09-30T09:17:19.805Z,100399.66
2022-09-30T09:20:09.617Z,100399.63
2022-09-30T09:22:37.934Z,100404.13
2022-09-30T09:25:05.237Z,100409.41
2022-09-30T09:27:55.127Z,100404.25
2022-09-30T09:30:23.672Z,100404.25
2022-09-30T09:32:57.153Z,100399.06
2022-09-30T09:35:26.640Z,100400.78
2022-09-30T09:38:36.052Z,100401.69
2022-09-30T09:41:23.999Z,100406.06
2022-09-30T09:43:59.746Z,100400.84
2022-09-30T09:46:37.424Z,100397.41
2022-09-30T09:49:17.354Z,100397.41
2022-09-30T09:52:06.980Z,100398.28
2022-09-30T09:54:44.310Z,100382.59
2022-09-30T09:57:14.973Z,100375.56
2022-09-30T10:00:22.001Z,100379.94
2022-09-30T10:03:06.546Z,100378.16
2022-09-30T10:05:39.691Z,100379.97
2022-09-30T10:08:19.661Z,100371.22
2022-09-30T10:10:50.697Z,100379.78
2022-09-30T10:13:29.671Z,100390.22
2022-09-30T10:16:01.369Z,100385.00
2022-09-30T10:18:37.900Z,100378.84
2022-09-30T10:21:25.952Z,100388.28
2022-09-30T10:23:53.053Z,100383.06
2022-09-30T10:29:04.991Z,100384.72
2022-09-30T10:31:36.183Z,100392.53
2022-09-30T10:34:19.694Z,100386.28
2022-09-30T10:36:47.074Z,100381.81
2022-09-30T10:39:27.863Z,100384.47
2022-09-30T10:42:23.621Z,100382.56
2022-09-30T10:44:56.257Z,100380.59
2022-09-30T10:47:31.368Z,100384.84
2022-09-30T10:50:09.043Z,100375.22
2022-09-30T10:52:46.870Z,100381.41
2022-09-30T10:55:19.527Z,100382.22
2022-09-30T10:57:47.763Z,100361.28
2022-09-30T11:00:21.944Z,100382.03
2022-09-30T11:03:04.157Z,100378.53
2022-09-30T11:05:33.876Z,100382.78
2022-09-30T11:08:03.494Z,100374.84
2022-09-30T11:10:48.441Z,100369.75
2022-09-30T11:13:37.156Z,100370.28
2022-09-30T11:16:37.171Z,100371.13
2022-09-30T11:19:26.928Z,100371.72
2022-09-30T11:22:04.514Z,100362.47
2022-09-30T11:24:45.058Z,100373.81
2022-09-30T11:27:38.183Z,100379.53
2022-09-30T11:30:07.726Z,100377.25
2022-09-30T11:32:52.217Z,100372.53
2022-09-30T11:35:18.799Z,100372.50
2022-09-30T11:38:22.887Z,100365.56
2022-09-30T11:41:14.875Z,100364.56
2022-09-30T11:43:44.443Z,100377.94
2022-09-30T11:46:17.101Z,100376.34
2022-09-30T11:49:02.334Z,100372.72
2022-09-30T11:51:38.286Z,100368.88
2022-09-30T11:54:20.422Z,100362.28
2022-09-30T11:56:55.381Z,100374.16
2022-09-30T11:59:27.235Z,100375.78
2022-09-30T12:01:58.732Z,100379.75
2022-09-30T12:04:46.531Z,100375.34
2022-09-30T12:07:35.170Z,100387.50
2022-09-30T12:10:26.788Z,100395.16
2022-09-30T12:13:08.881Z,100388.50
2022-09-30T12:15:36.726Z,100378.81
2022-09-30T12:18:09.382Z,100371.50
2022-09-30T12:20:47.322Z,100373.13
2022-09-30T12:23:44.643Z,100367.88
2022-09-30T12:26:14.160Z,100364.03
2022-09-30T12:29:03.933Z,100372.53
2022-09-30T12:32:12.810Z,100366.38
2022-09-30T12:35:04.611Z,100366.47
2022-09-30T12:38:00.810Z,100324.19
2022-09-30T12:40:40.201Z,100349.59
2022-09-30T12:43:25.504Z,100347.88
2022-09-30T12:45:55.196Z,100357.47
2022-09-30T12:48:27.233Z,100348.38
2022-09-30T12:50:57.778Z,100337.09
2022-09-30T12:53:29.866Z,100346.97
2022-09-30T12:56:13.470Z,100342.16
2022-09-30T12:58:50.279Z,100338.94
2022-09-30T13:01:26.501Z,100336.78
2022-09-30T13:04:01.935Z,100329.53
2022-09-30T13:06:48.433Z,100322.56
2022-09-30T13:09:24.998Z,100331.00
2022-09-30T13:11:54.736Z,100324.13
2022-09-30T13:14:27.290Z,100319.53
2022-09-30T13:17:09.228Z,100323.63
2022-09-30T13:19:44.365Z,100321.03
2022-09-30T13:22:20.436Z,100312.53
2022-09-30T13:25:00.387Z,100312.91
2022-09-30T13:27:46.972Z,100304.75
2022-09-30T13:30:13.667Z,100305.03
2022-09-30T13:32:43.019Z,100299.72
2022-09-30T13:35:48.662Z,100298.75
2022-09-30T13:38:15.400Z,100296.22
2022-09-30T13:41:03.105Z,100299.06
2022-09-30T13:43:50.825Z,100300.16
2022-09-30T13:46:43.802Z,100299.34
2022-09-30T13:49:25.443Z,100296.03
2022-09-30T13:51:54.903Z,100282.88
2022-09-30T13:54:35.777Z,100283.13
2022-09-30T13:57:04.775Z,100272.72
2022-09-30T13:59:50.889Z,100270.63
2022-09-30T14:02:22.347Z,100277.25
2022-09-30T14:05:04.515Z,100280.47
2022-09-30T14:07:56.119Z,100279.50
2022-09-30T14:11:01.448Z,100269.97
2022-09-30T14:13:57.883Z,100269.84
2022-09-30T14:16:31.901Z,100272.47
2022-09-30T14:19:29.990Z,100282.56
2022-09-30T14:21:59.225Z,100260.44
2022-09-30T14:24:30.884Z,100271.53
2022-09-30T14:27:09.604Z,100272.44
2022-09-30T14:29:42.411Z,100276.19
2022-09-30T14:32:18.673Z,100275.06
2022-09-30T14:34:47.596Z,100269.88
2022-09-30T14:37:26.245Z,100286.19
2022-09-30T14:39:53.066Z,100284.38
2022-09-30T14:42:41.281Z,100279.06
2022-09-30T14:45:09.424Z,100281.56
2022-09-30T14:47:44.471Z,100284.38
2022-09-30T14:50:17.186Z,100273.13
2022-09-30T14:52:46.668Z,100267.41
2022-09-30T14:55:33.475Z,100271.44
2022-09-30T14:58:18.782Z,100263.16
2022-09-30T15:00:49.779Z,100250.69
2022-09-30T15:03:16.673Z,100255.44
2022-09-30T15:05:43.384Z,100264.97
2022-09-30T15:08:12.821Z,100258.13
2022-09-30T15:10:47.206Z,100249.13
2022-09-30T15:13:14.865Z,100233.78
2022-09-30T15:15:41.668Z,100247.34
2022-09-30T15:18:24.790Z,100243.00
2022-09-30T15:20:55.118Z,100245.88
2022-09-30T15:23:27.778Z,100245.59
2022-09-30T15:25:55.372Z,100244.38
2022-09-30T15:28:22.052Z,100239.97
2022-09-30T15:30:51.855Z,100242.84
2022-09-30T15:33:23.643Z,100245.31
2022-09-30T15:35:53.144Z,100248.72
2022-09-30T15:38:23.348Z,100249.56
2022-09-30T15:40:59.139Z,100251.25
2022-09-30T15:43:44.297Z,100246.19
2022-09-30T15:46:26.193Z,100252.88
2022-09-30T15:48:59.005Z,100244.50
2022-09-30T15:51:30.209Z,100240.47
2022-09-30T15:54:04.059Z,100237.09
2022-09-30T15:56:35.119Z,100246.19
2022-09-30T15:59:06.323Z,100242.56
2022-09-30T16:01:39.301Z,100246.53
2022-09-30T16:04:14.197Z,100247.19
2022-09-30T16:06:40.753Z,100256.09
2022-09-30T16:09:21.996Z,100255.25
2022-09-30T16:12:03.718Z,100253.63
2022-09-30T16:14:48.849Z,100258.91
2022-09-30T16:17:24.967Z,100266.16
2022-09-30T16:19:57.461Z,100262.81
2022-09-30T16:22:54.334Z,100260.28
2022-09-30T16:25:28.733Z,100256.63
2022-09-30T16:28:11.282Z,100259.44
2022-09-30T16:30:44.510Z,100256.91
2022-09-30T16:33:13.661Z,100248.81
2022-09-30T16:35:42.692Z,100246.59
2022-09-30T16:38:12.573Z,100252.59
2022-09-30T16:40:40.014Z,100251.03
2022-09-30T16:43:07.874Z,100249.22
2022-09-30T16:45:35.216Z,100250.19
2022-09-30T16:48:05.446Z,100260.66
2022-09-30T16:50:56.249Z,100254.69
2022-09-30T16:53:22.897Z,100254.81
2022-09-30T16:55:49.993Z,100257.59
2022-09-30T16:58:16.883Z,100258.41
2022-09-30T17:00:46.893Z,100262.78
2022-09-30T17:03:15.246Z,100264.59
2022-09-30T17:05:46.726Z,100267.19
2022-09-30T17:08:17.726Z,100260.31
2022-09-30T17:10:47.371Z,100257.72
2022-09-30T17:13:17.410Z,100267.31
2022-09-30T17:15:49.648Z,100256.97
2022-09-30T17:18:17.575Z,100250.94
2022-09-30T17:20:48.869Z,100259.72
2022-09-30T17:23:15.441Z,100251.09
2022-09-30T17:25:42.708Z,100258.13
2022-09-30T17:28:11.185Z,100246.03
2022-09-30T17:30:39.120Z,100259.09
2022-09-30T17:33:05.738Z,100253.09
2022-09-30T17:35:33.270Z,100245.34
2022-09-30T17:38:00.727Z,100246.25
2022-09-30T17:40:45.837Z,100260.19
2022-09-30T17:43:12.885Z,100254.19
2022-09-30T17:45:46.052Z,100258.56
2022-09-30T17:48:14.388Z,100262.94
2022-09-30T17:50:44.455Z,100243.00
2022-09-30T17:53:16.824Z,100242.22
2022-09-30T17:55:47.117Z,100257.88
2022-09-30T17:58:15.323Z,100250.94
2022-09-30T18:00:42.442Z,100256.22
2022-09-30T18:03:09.816Z,100247.53
2022-09-30T18:05:37.199Z,100248.44
2022-09-30T18:08:05.525Z,100256.34
2022-09-30T18:10:32.410Z,100238.09
2022-09-30T18:12:59.946Z,100252.03
2022-09-30T18:15:28.177Z,100242.47
2022-09-30T18:17:55.052Z,100241.63
2022-09-30T18:20:24.844Z,100240.78
2022-09-30T18:22:52.474Z,100233.84
2022-09-30T18:25:22.762Z,100233.88
2022-09-30T18:27:59.363Z,100233.00
2022-09-30T18:30:26.777Z,100233.88
2022-09-30T18:32:54.398Z,100241.72
2022-09-30T18:35:24.406Z,100242.56
2022-09-30T18:37:52.357Z,100233.03
2022-09-30T18:40:21.866Z,100241.72
2022-09-30T18:42:52.504Z,100244.34
2022-09-30T18:45:19.049Z,100238.25
2022-09-30T18:47:47.905Z,100235.66
2022-09-30T18:50:14.829Z,100228.69
2022-09-30T18:52:41.425Z,100220.91
2022-09-30T18:55:09.663Z,100231.31
2022-09-30T18:57:36.217Z,100239.13
2022-09-30T19:00:04.294Z,100226.97
2022-09-30T19:02:32.379Z,100227.84
2022-09-30T19:04:59.916Z,100235.66
2022-09-30T19:07:27.052Z,100240.00
2022-09-30T19:09:53.584Z,100249.56
2022-09-30T19:12:20.691Z,100240.88
2022-09-30T19:14:47.782Z,100243.47
2022-09-30T19:17:15.238Z,100238.28
2022-09-30T19:19:45.265Z,100235.66
2022-09-30T19:22:13.471Z,100239.13
2022-09-30T19:24:40.064Z,100225.22
2022-09-30T19:27:06.755Z,100226.09
2022-09-30T19:29:33.814Z,100232.19
2022-09-30T19:32:00.546Z,100224.34
2022-09-30T19:34:32.036Z,100228.69
2022-09-30T19:36:59.840Z,100226.09
2022-09-30T19:39:38.747Z,100224.38
2022-09-30T19:42:13.450Z,100223.50
2022-09-30T19:44:39.941Z,100220.00
2022-09-30T19:47:06.761Z,100226.13
2022-09-30T19:49:33.287Z,100225.25
2022-09-30T19:52:03.666Z,100220.91
2022-09-30T19:54:41.404Z,100207.88
2022-09-30T19:57:08.829Z,100207.84
2022-09-30T19:59:35.347Z,100197.41
2022-09-30T20:02:02.392Z,100200.91
2022-09-30T20:04:30.063Z,100192.22
2022-09-30T20:06:56.711Z,100195.69
2022-09-30T20:09:24.254Z,100193.09
2022-09-30T20:11:51.007Z,100188.75
2022-09-30T20:14:36.070Z,100173.97
2022-09-30T20:17:02.709Z,100180.94
2022-09-30T20:19:29.235Z,100187.00
2022-09-30T20:21:55.922Z,100187.00
2022-09-30T20:24:22.587Z,100183.53
2022-09-30T20:26:50.267Z,100182.66
2022-09-30T20:29:19.712Z,100183.53
2022-09-30T20:31:47.556Z,100194.81
2022-09-30T20:34:16.448Z,100187.00
2022-09-30T20:36:44.013Z,100182.66
2022-09-30T20:39:11.043Z,100176.56
2022-09-30T20:41:39.664Z,100175.72
2022-09-30T20:44:10.448Z,100179.16
2022-09-30T20:46:37.232Z,100175.72
2022-09-30T20:49:04.146Z,100175.72
2022-09-30T20:51:32.082Z,100156.63
2022-09-30T20:53:59.718Z,100167.88
2022-09-30T20:56:35.842Z,100169.59
2022-09-30T20:59:15.302Z,100167.03
2022-09-30T21:01:42.696Z,100156.59
2022-09-30T21:04:09.373Z,100164.41
2022-09-30T21:06:35.900Z,100159.22
2022-09-30T21:09:03.262Z,100164.41
2022-09-30T21:11:29.990Z,100159.22
2022-09-30T21:13:56.796Z,100157.47
2022-09-30T21:16:25.385Z,100161.81
2022-09-30T21:18:53.500Z,100146.19
2022-09-30T21:21:28.154Z,100150.50
2022-09-30T21:23:55.450Z,100153.13
2022-09-30T21:26:28.817Z,100149.66
2022-09-30T21:28:55.422Z,100147.03
2022-09-30T21:31:25.035Z,100134.00
2022-09-30T21:33:52.458Z,100143.56
2022-09-30T21:36:21.023Z,100141.81
2022-09-30T21:38:48.493Z,100138.34
2022-09-30T21:41:15.720Z,100133.16
2022-09-30T21:43:43.743Z,100134.00
2022-09-30T21:46:12.868Z,100133.97
2022-09-30T21:48:40.210Z,100131.38
2022-09-30T21:51:08.219Z,100136.63
2022-09-30T21:53:35.139Z,100134.00
2022-09-30T21:56:03.495Z,100125.31
2022-09-30T21:58:32.905Z,100129.69
2022-09-30T22:01:11.992Z,100120.13
2022-09-30T22:03:40.488Z,100120.09
2022-09-30T22:06:08.472Z,100113.16
2022-09-30T22:08:39.948Z,100104.50
2022-09-30T22:11:13.643Z,100120.13
2022-09-30T22:13:44.106Z,100117.50
2022-09-30T22:16:11.797Z,100114.91
2022-09-30T22:18:38.718Z,100115.78
2022-09-30T22:21:09.021Z,100110.56
2022-09-30T22:23:35.712Z,100110.53
2022-09-30T22:26:10.680Z,100107.97
2022-09-30T22:28:38.461Z,100110.56
2022-09-30T22:31:17.226Z,100117.47
2022-09-30T22:34:02.366Z,100098.34
2022-09-30T22:36:47.707Z,100099.25
2022-09-30T22:39:14.245Z,100101.91
2022-09-30T22:41:40.830Z,100098.41
2022-09-30T22:44:08.160Z,100089.75
2022-09-30T22:46:36.391Z,100088.88
2022-09-30T22:49:04.354Z,100089.75
2022-09-30T22:51:32.805Z,100081.94
2022-09-30T22:54:01.250Z,100077.59
2022-09-30T22:56:27.890Z,100082.78
2022-09-30T22:58:54.456Z,100072.38
2022-09-30T23:01:21.935Z,100079.31
2022-09-30T23:03:55.410Z,100075.84
2022-09-30T23:06:24.259Z,100061.09
2022-09-30T23:08:51.846Z,100056.75
2022-09-30T23:11:19.090Z,100063.69
2022-09-30T23:13:46.525Z,100054.13
2022-09-30T23:16:14.999Z,100050.69
2022-09-30T23:18:42.432Z,100043.72
2022-09-30T23:21:15.476Z,100041.97
2022-09-30T23:23:42.338Z,100037.63
2022-09-30T23:26:25.978Z,100044.59
2022-09-30T23:29:00.814Z,100038.50
2022-09-30T23:31:28.157Z,100030.69
2022-09-30T23:33:57.197Z,100032.41
2022-09-30T23:36:32.138Z,100028.06
2022-09-30T23:39:18.616Z,100028.91
2022-09-30T23:41:46.577Z,100015.88
2022-09-30T23:44:14.700Z,100021.97
2022-09-30T23:47:01.224Z,100014.97
2022-09-30T23:49:27.900Z,100008.03
2022-09-30T23:51:54.874Z,100001.94
2022-09-30T23:54:21.375Z,99994.97
2022-09-30T23:56:48.334Z,99996.72
2022-09-30T23:59:14.942Z,99990.63
